createdAt,value
2018-03-07T00:00:50.132Z,79.40
2018-03-07T00:03:19.952Z,79.60
2018-03-07T00:05:49.853Z,79.80
2018-03-07T00:08:19.656Z,79.80
2018-03-07T00:10:49.764Z,79.80
2018-03-07T00:13:20.062Z,79.70
2018-03-07T00:15:50.236Z,79.90
2018-03-07T00:18:20.604Z,80.00
2018-03-07T00:20:52.261Z,80.10
2018-03-07T00:23:22.820Z,80.10
2018-03-07T00:25:52.612Z,80.00
2018-03-07T00:28:22.383Z,80.10
2018-03-07T00:30:52.185Z,79.90
2018-03-07T00:33:22.005Z,79.70
2018-03-07T00:35:53.060Z,79.70
2018-03-07T00:38:23.098Z,79.80
2018-03-07T00:40:52.890Z,80.40
2018-03-07T00:43:23.441Z,79.70
2018-03-07T00:45:54.010Z,79.30
2018-03-07T00:48:23.795Z,79.30
2018-03-07T00:50:53.692Z,79.40
2018-03-07T00:53:23.563Z,79.50
2018-03-07T00:55:53.765Z,79.40
2018-03-07T00:58:24.769Z,79.00
2018-03-07T01:00:55.288Z,78.80
2018-03-07T01:03:25.842Z,78.40
2018-03-07T01:05:55.653Z,78.30
2018-03-07T01:08:25.413Z,77.90
2018-03-07T01:10:55.176Z,77.30
2018-03-07T01:13:26.417Z,76.70
2018-03-07T01:15:56.179Z,76.70
2018-03-07T01:18:26.114Z,76.20
2018-03-07T01:20:56.330Z,75.50
2018-03-07T01:23:27.299Z,74.70
2018-03-07T01:25:57.401Z,74.60
2018-03-07T01:28:28.245Z,74.40
2018-03-07T01:30:58.109Z,74.30
2018-03-07T01:33:27.954Z,73.80
2018-03-07T01:35:58.538Z,73.10
2018-03-07T01:38:28.380Z,73.10
2018-03-07T01:40:58.349Z,72.80
2018-03-07T01:43:29.543Z,72.70
2018-03-07T01:45:59.304Z,72.60
2018-03-07T01:48:29.137Z,72.40
2018-03-07T01:50:58.953Z,72.60
2018-03-07T01:53:31.013Z,71.80
2018-03-07T01:56:00.781Z,71.80
2018-03-07T01:58:31.310Z,69.90
2018-03-07T02:01:01.918Z,70.10
2018-03-07T02:03:31.708Z,70.00
2018-03-07T02:06:01.564Z,70.50
2018-03-07T02:08:32.077Z,71.50
2018-03-07T02:11:01.854Z,71.50
2018-03-07T02:13:31.645Z,71.20
2018-03-07T02:16:02.556Z,71.00
2018-03-07T02:18:32.359Z,70.20
2018-03-07T02:21:02.915Z,69.60
2018-03-07T02:23:32.614Z,69.60
2018-03-07T02:26:03.130Z,70.00
2018-03-07T02:28:33.625Z,69.50
2018-03-07T02:31:03.390Z,69.30
2018-03-07T02:33:33.136Z,69.30
2018-03-07T02:36:03.995Z,68.40
2018-03-07T02:38:34.365Z,68.40
2018-03-07T02:41:04.064Z,68.30
2018-03-07T02:43:34.858Z,68.10
2018-03-07T02:46:04.562Z,68.10
2018-03-07T02:48:35.143Z,68.50
2018-03-07T02:51:04.868Z,68.50
2018-03-07T02:53:34.822Z,68.50
2018-03-07T02:56:05.064Z,68.40
2018-03-07T02:58:36.173Z,68.10
2018-03-07T03:01:05.946Z,67.90
2018-03-07T03:03:36.409Z,67.40
2018-03-07T03:06:06.994Z,66.40
2018-03-07T03:08:37.360Z,66.30
2018-03-07T03:11:07.452Z,67.00
2018-03-07T03:13:37.230Z,66.40
2018-03-07T03:16:06.994Z,66.80
2018-03-07T03:18:37.161Z,67.20
2018-03-07T03:21:07.605Z,67.60
2018-03-07T03:23:38.521Z,68.00
2018-03-07T03:26:08.290Z,68.00
2018-03-07T03:28:38.947Z,68.20
2018-03-07T03:31:08.730Z,68.10
2018-03-07T03:33:38.502Z,67.70
2018-03-07T03:36:09.514Z,66.60
2018-03-07T03:38:39.214Z,66.50
2018-03-07T03:41:09.157Z,66.40
2018-03-07T03:43:39.391Z,66.50
2018-03-07T03:46:10.398Z,66.40
2018-03-07T03:48:40.149Z,66.30
2018-03-07T03:51:10.840Z,66.30
2018-03-07T03:53:40.537Z,66.30
2018-03-07T03:56:11.017Z,65.80
2018-03-07T03:58:41.498Z,66.00
2018-03-07T04:01:11.194Z,66.00
2018-03-07T04:03:41.101Z,66.60
2018-03-07T04:06:12.800Z,68.00
2018-03-07T04:08:42.493Z,68.00
2018-03-07T04:11:12.304Z,68.50
2018-03-07T04:13:42.015Z,66.60
2018-03-07T04:16:12.205Z,66.80
2018-03-07T04:18:42.957Z,66.30
2018-03-07T04:21:12.648Z,65.90
2018-03-07T04:23:43.177Z,66.40
2018-03-07T04:26:13.306Z,66.40
2018-03-07T04:28:43.566Z,67.10
2018-03-07T04:31:14.448Z,68.10
2018-03-07T04:33:44.214Z,68.00
2018-03-07T04:36:14.130Z,68.20
2018-03-07T04:38:44.256Z,67.20
2018-03-07T04:41:16.294Z,63.90
2018-03-07T04:43:46.055Z,63.80
2018-03-07T04:46:16.031Z,63.10
2018-03-07T04:48:45.705Z,61.60
2018-03-07T04:51:16.345Z,60.50
2018-03-07T04:53:46.070Z,59.90
2018-03-07T04:56:15.807Z,59.40
2018-03-07T04:58:47.241Z,59.30
2018-03-07T05:01:16.921Z,59.30
2018-03-07T05:03:47.846Z,59.30
2018-03-07T05:06:17.613Z,59.40
2018-03-07T05:08:47.566Z,59.50
2018-03-07T05:11:17.713Z,59.00
2018-03-07T05:13:48.078Z,58.90
2018-03-07T05:16:18.137Z,57.90
2018-03-07T05:18:48.572Z,57.40
2018-03-07T05:21:18.556Z,56.80
2018-03-07T05:23:49.182Z,56.60
2018-03-07T05:26:19.945Z,55.60
2018-03-07T05:28:50.324Z,55.50
2018-03-07T05:31:20.082Z,55.20
2018-03-07T05:33:51.398Z,55.90
2018-03-07T05:36:21.882Z,55.50
2018-03-07T05:38:51.672Z,55.50
2018-03-07T05:41:21.404Z,54.90
2018-03-07T05:43:51.173Z,54.10
2018-03-07T05:46:21.859Z,55.00
2018-03-07T05:48:51.693Z,55.00
2018-03-07T05:51:21.386Z,55.70
2018-03-07T05:53:51.081Z,55.40
2018-03-07T05:56:20.757Z,56.10
2018-03-07T05:58:50.439Z,55.90
2018-03-07T06:01:20.880Z,56.00
2018-03-07T06:03:50.583Z,56.00
2018-03-07T06:06:20.321Z,56.30
2018-03-07T06:08:50.023Z,57.00
2018-03-07T06:11:19.726Z,58.00
2018-03-07T06:13:49.478Z,58.40
2018-03-07T06:16:19.263Z,58.20
2018-03-07T06:18:48.982Z,58.40
2018-03-07T06:21:18.662Z,58.40
2018-03-07T06:23:49.067Z,58.50
2018-03-07T06:26:19.564Z,58.00
2018-03-07T06:28:49.294Z,58.00
2018-03-07T06:31:19.020Z,57.70
2018-03-07T06:33:49.637Z,58.30
2018-03-07T06:36:20.999Z,57.70
2018-03-07T06:38:51.453Z,58.10
2018-03-07T06:41:22.478Z,58.10
2018-03-07T06:43:52.190Z,58.40
2018-03-07T06:46:21.890Z,59.00
2018-03-07T06:48:52.778Z,59.20
2018-03-07T06:51:22.472Z,59.10
2018-03-07T06:53:57.674Z,59.80
2018-03-07T06:56:28.183Z,58.80
2018-03-07T06:58:57.862Z,58.80
2018-03-07T07:01:27.739Z,59.10
2018-03-07T07:03:58.706Z,58.10
2018-03-07T07:06:28.402Z,58.10
2018-03-07T07:08:58.556Z,58.50
2018-03-07T07:11:28.930Z,57.80
2018-03-07T07:13:59.061Z,57.20
2018-03-07T07:16:29.182Z,57.10
2018-03-07T07:18:59.378Z,57.20
2018-03-07T07:21:29.645Z,57.60
2018-03-07T07:24:00.721Z,56.40
2018-03-07T07:26:31.170Z,56.90
2018-03-07T07:29:02.402Z,57.20
2018-03-07T07:31:32.919Z,57.30
2018-03-07T07:34:03.409Z,56.50
2018-03-07T07:36:33.239Z,56.40
2018-03-07T07:39:02.947Z,57.00
2018-03-07T07:41:32.680Z,56.10
2018-03-07T07:44:02.982Z,56.40
2018-03-07T07:46:32.700Z,56.60
2018-03-07T07:49:02.717Z,55.70
2018-03-07T07:51:32.524Z,55.80
2018-03-07T07:54:02.491Z,55.90
2018-03-07T07:56:33.338Z,55.30
2018-03-07T07:59:03.412Z,55.30
2018-03-07T08:01:33.945Z,54.70
2018-03-07T08:04:03.719Z,54.70
2018-03-07T08:06:33.442Z,54.40
2018-03-07T08:09:03.154Z,54.40
2018-03-07T08:11:34.592Z,55.30
2018-03-07T08:14:05.059Z,55.40
2018-03-07T08:16:35.662Z,54.70
2018-03-07T08:19:05.384Z,54.70
2018-03-07T08:21:35.126Z,54.30
2018-03-07T08:24:06.245Z,54.30
2018-03-07T08:26:37.219Z,54.30
2018-03-07T08:29:06.998Z,54.30
2018-03-07T08:31:37.510Z,55.50
2018-03-07T08:34:07.199Z,55.50
2018-03-07T08:36:36.942Z,55.70
2018-03-07T08:39:06.910Z,55.80
2018-03-07T08:41:36.633Z,55.90
2018-03-07T08:44:07.905Z,56.40
2018-03-07T08:46:37.629Z,56.40
2018-03-07T08:49:08.316Z,57.30
2018-03-07T08:51:38.007Z,57.20
2018-03-07T08:54:08.762Z,57.80
2018-03-07T08:56:38.494Z,57.80
2018-03-07T08:59:08.407Z,57.50
2018-03-07T09:01:38.681Z,57.50
2018-03-07T09:04:08.837Z,57.50
2018-03-07T09:06:39.029Z,57.40
2018-03-07T09:09:10.220Z,57.50
2018-03-07T09:11:39.943Z,57.50
2018-03-07T09:14:09.684Z,58.30
2018-03-07T09:16:39.743Z,58.60
2018-03-07T09:19:11.007Z,58.60
2018-03-07T09:21:40.808Z,58.50
2018-03-07T09:24:11.957Z,58.70
2018-03-07T09:26:41.828Z,58.70
2018-03-07T09:29:13.082Z,59.10
2018-03-07T09:31:42.781Z,59.10
2018-03-07T09:34:12.559Z,59.20
2018-03-07T09:36:42.845Z,59.00
2018-03-07T09:39:12.612Z,58.90
2018-03-07T09:41:43.070Z,59.10
2018-03-07T09:44:12.802Z,59.00
2018-03-07T09:46:42.582Z,58.90
2018-03-07T09:49:12.766Z,59.00
2018-03-07T09:51:43.988Z,59.60
2018-03-07T09:54:13.779Z,59.60
2018-03-07T09:56:43.542Z,59.40
2018-03-07T09:59:14.103Z,59.30
2018-03-07T10:01:43.975Z,59.50
2018-03-07T10:04:14.956Z,60.10
2018-03-07T10:06:45.294Z,60.00
2018-03-07T10:09:15.034Z,60.40
2018-03-07T10:11:45.070Z,60.70
2018-03-07T10:14:15.535Z,61.80
2018-03-07T10:16:46.242Z,61.80
2018-03-07T10:19:16.718Z,62.10
2018-03-07T10:21:51.591Z,62.10
2018-03-07T10:24:22.147Z,63.40
2018-03-07T10:26:51.865Z,63.30
2018-03-07T10:29:21.794Z,63.60
2018-03-07T10:31:51.536Z,63.60
2018-03-07T10:34:21.297Z,63.90
2018-03-07T10:36:51.917Z,64.70
2018-03-07T10:39:21.699Z,64.70
2018-03-07T10:41:52.193Z,64.90
2018-03-07T10:44:21.890Z,64.90
2018-03-07T10:46:51.595Z,65.40
2018-03-07T10:49:21.911Z,67.10
2018-03-07T10:51:51.602Z,70.80
2018-03-07T10:54:21.322Z,71.00
2018-03-07T10:56:51.126Z,73.70
2018-03-07T10:59:21.462Z,76.60
2018-03-07T11:01:51.139Z,75.80
2018-03-07T11:04:23.409Z,78.30
2018-03-07T11:06:53.854Z,79.50
2018-03-07T11:09:23.621Z,79.50
2018-03-07T11:11:53.297Z,79.70
2018-03-07T11:14:24.551Z,79.30
2018-03-07T11:16:54.260Z,80.50
2018-03-07T11:19:23.987Z,80.00
2018-03-07T11:21:53.770Z,79.30
2018-03-07T11:24:23.485Z,80.80
2018-03-07T11:26:53.253Z,79.40
2018-03-07T11:29:23.719Z,80.10
2018-03-07T11:31:53.471Z,80.00
2018-03-07T11:34:23.223Z,80.30
2018-03-07T11:36:54.149Z,80.10
2018-03-07T11:39:24.622Z,82.10
2018-03-07T11:41:54.357Z,82.10
2018-03-07T11:44:24.053Z,81.70
2018-03-07T11:46:54.608Z,81.20
2018-03-07T11:49:24.339Z,81.10
2018-03-07T11:51:54.179Z,81.70
2018-03-07T11:54:24.442Z,82.40
2018-03-07T11:56:55.589Z,82.40
2018-03-07T11:59:25.408Z,82.40
2018-03-07T12:01:55.211Z,82.10
2018-03-07T12:04:25.326Z,82.30
2018-03-07T12:06:56.265Z,83.00
2018-03-07T12:09:26.038Z,83.00
2018-03-07T12:11:56.736Z,83.10
2018-03-07T12:14:27.249Z,82.40
2018-03-07T12:16:57.773Z,81.80
2018-03-07T12:19:27.515Z,81.80
2018-03-07T12:21:57.790Z,81.30
2018-03-07T12:24:28.438Z,81.90
2018-03-07T12:26:58.118Z,82.30
2018-03-07T12:29:27.928Z,83.00
2018-03-07T12:31:57.931Z,83.20
2018-03-07T12:34:28.305Z,82.30
2018-03-07T12:36:58.278Z,82.30
2018-03-07T12:39:29.411Z,82.40
2018-03-07T12:41:59.150Z,82.30
2018-03-07T12:44:28.897Z,81.70
2018-03-07T12:46:59.965Z,81.90
2018-03-07T12:49:29.716Z,81.80
2018-03-07T12:51:59.425Z,82.30
2018-03-07T12:54:30.698Z,83.00
2018-03-07T12:57:01.145Z,82.70
2018-03-07T12:59:31.589Z,82.30
2018-03-07T13:02:01.304Z,82.30
2018-03-07T13:04:31.011Z,82.00
2018-03-07T13:07:01.250Z,81.40
2018-03-07T13:09:32.096Z,81.60
2018-03-07T13:12:01.855Z,81.50
2018-03-07T13:14:32.915Z,82.40
2018-03-07T13:17:02.647Z,82.30
2018-03-07T13:19:32.709Z,82.40
2018-03-07T13:22:02.496Z,81.80
2018-03-07T13:24:32.630Z,81.80
2018-03-07T13:27:03.886Z,82.80
2018-03-07T13:29:34.452Z,82.30
2018-03-07T13:32:04.153Z,82.30
2018-03-07T13:34:33.902Z,82.90
2018-03-07T13:37:04.034Z,81.80
2018-03-07T13:39:34.187Z,81.60
2018-03-07T13:42:04.461Z,81.90
2018-03-07T13:44:34.744Z,81.60
2018-03-07T13:47:04.576Z,81.50
2018-03-07T13:49:35.683Z,81.60
2018-03-07T13:52:06.189Z,81.20
2018-03-07T13:54:35.959Z,81.20
2018-03-07T13:57:07.637Z,81.40
2018-03-07T13:59:37.353Z,81.40
2018-03-07T14:02:07.224Z,81.70
2018-03-07T14:04:37.903Z,81.80
2018-03-07T14:07:07.667Z,81.90
2018-03-07T14:09:37.456Z,81.70
2018-03-07T14:12:08.042Z,81.90
2018-03-07T14:14:37.721Z,81.90
2018-03-07T14:17:07.439Z,81.50
2018-03-07T14:19:37.842Z,81.70
2018-03-07T14:22:08.017Z,81.60
2018-03-07T14:24:38.250Z,81.60
2018-03-07T14:27:09.123Z,81.70
2018-03-07T14:29:40.799Z,81.80
2018-03-07T14:32:10.803Z,81.80
2018-03-07T14:34:41.354Z,81.80
2018-03-07T14:37:11.033Z,81.60
2018-03-07T14:39:41.848Z,81.60
2018-03-07T14:42:12.413Z,81.90
2018-03-07T14:44:42.216Z,81.70
2018-03-07T14:47:11.990Z,81.70
2018-03-07T14:49:41.715Z,81.60
2018-03-07T14:52:12.599Z,80.90
2018-03-07T14:54:43.197Z,80.80
2018-03-07T14:57:13.719Z,80.90
2018-03-07T14:59:45.121Z,81.70
2018-03-07T15:02:16.468Z,81.90
2018-03-07T15:04:46.225Z,81.80
2018-03-07T15:07:15.981Z,81.90
2018-03-07T15:09:46.952Z,81.90
2018-03-07T15:12:16.709Z,81.70
2018-03-07T15:14:46.467Z,81.50
2018-03-07T15:17:16.325Z,81.50
2018-03-07T15:19:47.108Z,81.60
2018-03-07T15:22:17.220Z,81.90
2018-03-07T15:24:48.036Z,81.60
2018-03-07T15:27:17.747Z,81.60
2018-03-07T15:29:48.421Z,82.50
2018-03-07T15:32:18.195Z,81.10
2018-03-07T15:34:48.540Z,81.20
2018-03-07T15:37:19.470Z,81.50
2018-03-07T15:39:49.198Z,81.50
2018-03-07T15:42:19.329Z,81.70
2018-03-07T15:44:50.514Z,81.90
2018-03-07T15:47:20.266Z,81.90
2018-03-07T15:49:50.210Z,82.20
2018-03-07T15:52:20.685Z,81.80
2018-03-07T15:54:51.014Z,81.70
2018-03-07T15:57:20.721Z,81.70
2018-03-07T15:59:50.377Z,81.80
2018-03-07T16:02:20.886Z,82.20
2018-03-07T16:04:50.998Z,82.10
2018-03-07T16:07:21.757Z,82.40
2018-03-07T16:09:52.302Z,81.90
2018-03-07T16:12:22.772Z,81.70
2018-03-07T16:14:52.477Z,81.60
2018-03-07T16:17:24.101Z,81.30
2018-03-07T16:19:54.846Z,81.40
2018-03-07T16:22:24.902Z,81.30
2018-03-07T16:24:54.593Z,81.40
2018-03-07T16:27:24.260Z,81.40
2018-03-07T16:29:54.685Z,81.50
2018-03-07T16:32:25.609Z,80.90
2018-03-07T16:34:55.285Z,80.90
2018-03-07T16:37:25.011Z,80.90
2018-03-07T16:39:54.821Z,81.00
2018-03-07T16:42:24.526Z,81.40
2018-03-07T16:44:54.208Z,81.50
2018-03-07T16:47:23.871Z,80.80
2018-03-07T16:49:53.707Z,81.00
2018-03-07T16:52:24.233Z,81.20
2018-03-07T16:54:53.966Z,81.20
2018-03-07T16:57:23.724Z,81.20
2018-03-07T16:59:55.525Z,81.90
2018-03-07T17:02:25.816Z,81.90
2018-03-07T17:04:57.071Z,81.90
2018-03-07T17:07:27.539Z,82.00
2018-03-07T17:09:57.214Z,82.00
2018-03-07T17:12:28.771Z,81.40
2018-03-07T17:14:58.461Z,81.70
2018-03-07T17:17:29.291Z,81.80
2018-03-07T17:19:59.069Z,81.80
2018-03-07T17:22:29.525Z,82.20
2018-03-07T17:24:59.230Z,82.10
2018-03-07T17:27:29.035Z,82.30
2018-03-07T17:29:58.738Z,82.10
2018-03-07T17:32:28.502Z,82.00
2018-03-07T17:34:58.182Z,82.20
2018-03-07T17:37:28.739Z,82.60
2018-03-07T17:39:58.625Z,82.60
2018-03-07T17:42:28.322Z,82.60
2018-03-07T17:44:58.041Z,82.50
2018-03-07T17:47:28.547Z,82.30
2018-03-07T17:49:59.716Z,82.30
2018-03-07T17:52:30.209Z,82.30
2018-03-07T17:55:00.526Z,82.20
2018-03-07T17:57:30.849Z,82.50
2018-03-07T18:00:00.567Z,82.60
2018-03-07T18:02:30.295Z,82.50
2018-03-07T18:05:00.004Z,82.10
2018-03-07T18:07:29.665Z,82.30
2018-03-07T18:10:00.220Z,82.40
2018-03-07T18:12:30.934Z,82.50
2018-03-07T18:15:00.703Z,82.20
2018-03-07T18:17:30.925Z,82.30
2018-03-07T18:20:01.429Z,82.30
2018-03-07T18:22:31.178Z,82.10
2018-03-07T18:25:00.993Z,82.10
2018-03-07T18:27:31.503Z,82.20
2018-03-07T18:30:01.315Z,82.20
2018-03-07T18:32:31.773Z,82.20
2018-03-07T18:35:01.761Z,82.20
2018-03-07T18:37:33.724Z,82.40
2018-03-07T18:40:04.216Z,82.50
2018-03-07T18:42:34.849Z,82.50
2018-03-07T18:45:04.610Z,82.40
2018-03-07T18:47:35.050Z,82.10
2018-03-07T18:50:04.906Z,82.10
2018-03-07T18:52:34.576Z,82.40
2018-03-07T18:55:04.337Z,82.80
2018-03-07T18:57:34.029Z,82.90
2018-03-07T19:00:03.840Z,82.90
2018-03-07T19:02:33.518Z,83.00
2018-03-07T19:05:03.198Z,83.10
2018-03-07T19:07:34.585Z,83.30
2018-03-07T19:10:04.549Z,83.20
2018-03-07T19:12:34.886Z,83.30
2018-03-07T19:15:05.373Z,83.40
2018-03-07T19:17:36.611Z,83.30
2018-03-07T19:20:06.310Z,83.30
2018-03-07T19:22:37.725Z,82.70
2018-03-07T19:25:08.289Z,82.80
2018-03-07T19:27:38.621Z,82.80
2018-03-07T19:30:08.302Z,83.10
2018-03-07T19:32:37.966Z,83.30
2018-03-07T19:35:07.670Z,83.40
2018-03-07T19:37:37.338Z,83.10
2018-03-07T19:40:07.826Z,83.20
2018-03-07T19:42:39.276Z,83.50
2018-03-07T19:45:09.838Z,83.60
2018-03-07T19:47:39.619Z,83.50
2018-03-07T19:50:11.015Z,83.80
2018-03-07T19:52:40.934Z,83.80
2018-03-07T19:55:11.162Z,84.00
2018-03-07T19:57:40.858Z,84.10
2018-03-07T20:00:10.661Z,84.20
2018-03-07T20:02:41.973Z,83.90
2018-03-07T20:05:12.451Z,83.80
2018-03-07T20:07:43.117Z,83.80
2018-03-07T20:10:12.862Z,83.80
2018-03-07T20:12:43.329Z,83.30
2018-03-07T20:15:13.045Z,83.90
2018-03-07T20:17:42.788Z,83.60
2018-03-07T20:20:13.242Z,82.90
2018-03-07T20:22:43.625Z,82.90
2018-03-07T20:25:13.333Z,83.20
2018-03-07T20:27:43.035Z,83.40
2018-03-07T20:30:14.627Z,83.60
2018-03-07T20:32:45.141Z,84.50
2018-03-07T20:35:15.674Z,83.90
2018-03-07T20:37:46.166Z,84.10
2018-03-07T20:40:15.878Z,84.10
2018-03-07T20:42:45.610Z,84.20
2018-03-07T20:45:16.005Z,84.20
2018-03-07T20:47:45.755Z,84.10
2018-03-07T20:50:16.853Z,84.10
2018-03-07T20:52:46.533Z,84.10
2018-03-07T20:55:16.392Z,84.20
2018-03-07T20:57:47.190Z,84.10
2018-03-07T21:00:16.922Z,84.10
2018-03-07T21:02:46.601Z,84.00
2018-03-07T21:05:16.351Z,84.10
2018-03-07T21:07:46.410Z,84.00
2018-03-07T21:10:16.903Z,82.80
2018-03-07T21:12:46.623Z,82.80
2018-03-07T21:15:16.437Z,82.50
2018-03-07T21:17:46.927Z,82.80
2018-03-07T21:20:17.281Z,82.70
2018-03-07T21:22:46.998Z,82.90
2018-03-07T21:25:16.731Z,83.10
2018-03-07T21:27:48.235Z,83.50
2018-03-07T21:30:17.970Z,83.40
2018-03-07T21:32:47.799Z,83.80
2018-03-07T21:35:18.284Z,83.50
2018-03-07T21:37:47.985Z,83.50
2018-03-07T21:40:17.669Z,83.10
2018-03-07T21:42:47.761Z,83.30
2018-03-07T21:45:18.878Z,82.70
2018-03-07T21:47:48.585Z,82.60
2018-03-07T21:50:18.357Z,82.80
2018-03-07T21:52:48.617Z,83.10
2018-03-07T21:55:18.821Z,82.80
2018-03-07T21:57:49.118Z,83.00
2018-03-07T22:00:20.238Z,82.70
2018-03-07T22:02:50.711Z,82.90
2018-03-07T22:05:20.479Z,82.90
2018-03-07T22:07:50.979Z,83.00
2018-03-07T22:10:21.290Z,83.00
2018-03-07T22:12:51.829Z,83.20
2018-03-07T22:15:21.553Z,83.30
2018-03-07T22:17:51.660Z,83.20
2018-03-07T22:20:21.373Z,83.20
2018-03-07T22:22:52.197Z,83.20
2018-03-07T22:25:21.909Z,83.20
2018-03-07T22:27:51.663Z,83.20
2018-03-07T22:30:23.285Z,83.30
2018-03-07T22:32:52.995Z,83.30
2018-03-07T22:35:22.756Z,83.20
2018-03-07T22:37:53.400Z,83.20
2018-03-07T22:40:23.165Z,83.20
2018-03-07T22:42:52.857Z,83.00
2018-03-07T22:45:23.855Z,82.70
2018-03-07T22:47:53.561Z,82.60
2018-03-07T22:50:23.256Z,82.70
2018-03-07T22:52:53.043Z,82.60
2018-03-07T22:55:24.438Z,82.90
2018-03-07T22:57:54.441Z,82.80
2018-03-07T23:00:29.588Z,82.90
2018-03-07T23:02:59.301Z,82.80
2018-03-07T23:05:28.982Z,82.40
2018-03-07T23:07:59.458Z,82.60
2018-03-07T23:10:29.206Z,82.60
2018-03-07T23:12:59.684Z,82.70
2018-03-07T23:15:29.700Z,82.60
2018-03-07T23:17:59.422Z,83.10
2018-03-07T23:20:29.137Z,83.10
2018-03-07T23:22:59.822Z,83.00
2018-03-07T23:25:29.554Z,83.00
2018-03-07T23:27:59.345Z,82.90
2018-03-07T23:30:29.865Z,82.80
2018-03-07T23:32:59.627Z,82.80
2018-03-07T23:35:29.304Z,82.80
2018-03-07T23:37:59.095Z,82.90
2018-03-07T23:40:28.827Z,83.00
2018-03-07T23:43:00.419Z,83.10
2018-03-07T23:45:30.141Z,83.10
2018-03-07T23:47:59.817Z,82.90
2018-03-07T23:50:29.538Z,82.70
2018-03-07T23:52:59.261Z,82.70
2018-03-07T23:55:29.246Z,82.80
2018-03-07T23:57:59.382Z,82.90
